Eastern Oregon Regional At Pendleton Airport Pendleton US
ICAO: KPDT
IATA: PDT
Category: Medium
Scheduled Services: No

Elevation: 1497 ft
TransAlt. 18000 ft.

Airport Communications:
CHINOOK APP/DEP:133.15
ASOS:118.325
CTAF:119.7
GND:121.9
ARNG OPS:40.9
MC MINNVILLE RDO:122.2
PENDLETON TWR:119.7
UNICOM:122.95

KPDT Zoom In..

If you have problems with the map follow the link
https://www.worldairports.se/pages/airport.php?
ICAO=KPDT

Runways:

(A) RW 07 length 6301 ft width 150 ft
---- / hdg 74

(B) RW 11 length 5581 ft width 100 ft
---- / hdg 112

(C) RW 16 length 4341 ft width 60 ft
---- / hdg 163

(D) RW 25 length 6301 ft width 150 ft
ILS 110.30 / hdg 254

(E) RW 29 length 5581 ft width 100 ft
---- / hdg 292

(F) RW 34 length 4341 ft width 60 ft
---- / hdg 343

Location; KPDT
Day. 21 / Time. 18.53 Zulu
* Altimeter: 30.07
* Temperature: 14° c. 57.2°f.
* Wind from: 300° Speed 05 kn.
Dewpoint: 05° c.
Visibility: 8 Statute Miles.
Clouds: Clear (automated report).

KPDT 211853Z 30005KT 8SM CLR 14/05 A3007 RMK AO2 SLP178 T01440050


Wind From 300°
Speed 05 kn.

 
 
jpsmedia.com for Web Design worldairports.se 2018   terms of use